createdAt,value
2023-02-11T00:00:42.324Z,25.40
2023-02-11T00:03:09.285Z,25.40
2023-02-11T00:05:35.957Z,26.30
2023-02-11T00:08:02.619Z,26.50
2023-02-11T00:10:29.216Z,24.60
2023-02-11T00:12:56.196Z,25.70
2023-02-11T00:15:22.922Z,23.10
2023-02-11T00:17:49.562Z,23.30
2023-02-11T00:20:16.362Z,23.30
2023-02-11T00:22:43.858Z,26.20
2023-02-11T00:25:10.488Z,27.60
2023-02-11T00:27:37.830Z,25.50
2023-02-11T00:30:06.805Z,23.70
2023-02-11T00:32:33.467Z,27.10
2023-02-11T00:35:00.121Z,22.10
2023-02-11T00:37:26.935Z,24.00
2023-02-11T00:39:53.783Z,24.10
2023-02-11T00:42:20.560Z,23.60
2023-02-11T00:44:47.274Z,21.00
2023-02-11T00:47:17.143Z,21.40
2023-02-11T00:49:43.922Z,23.30
2023-02-11T00:52:10.674Z,24.50
2023-02-11T00:54:37.298Z,27.40
2023-02-11T00:57:04.084Z,25.20
2023-02-11T00:59:30.689Z,24.20
2023-02-11T01:01:57.671Z,25.70
2023-02-11T01:04:24.292Z,21.50
2023-02-11T01:06:52.051Z,24.90
2023-02-11T01:09:19.702Z,24.80
2023-02-11T01:11:46.280Z,23.20
2023-02-11T01:14:13.432Z,21.20
2023-02-11T01:16:40.457Z,23.60
2023-02-11T01:19:07.094Z,21.10
2023-02-11T01:21:33.835Z,23.20
2023-02-11T01:24:00.587Z,21.70
2023-02-11T01:26:27.332Z,23.40
2023-02-11T01:28:54.038Z,22.30
2023-02-11T01:31:20.864Z,23.00
2023-02-11T01:33:47.532Z,21.90
2023-02-11T01:36:14.065Z,20.90
2023-02-11T01:38:41.073Z,20.10
2023-02-11T01:41:12.667Z,21.10
2023-02-11T01:43:44.859Z,21.80
2023-02-11T01:46:23.805Z,21.40
2023-02-11T01:49:12.073Z,19.80
2023-02-11T01:51:57.172Z,17.70
2023-02-11T01:54:48.724Z,19.10
2023-02-11T01:57:25.349Z,17.20
2023-02-11T02:00:34.470Z,20.00
2023-02-11T02:03:08.626Z,19.20
2023-02-11T02:06:08.240Z,19.70
2023-02-11T02:08:51.679Z,18.30
2023-02-11T02:11:18.397Z,20.20
2023-02-11T02:13:45.150Z,19.70
2023-02-11T02:16:15.927Z,19.00
2023-02-11T02:19:05.660Z,19.40
2023-02-11T02:22:11.029Z,19.60
2023-02-11T02:25:33.746Z,18.70
2023-02-11T02:28:22.323Z,20.00
2023-02-11T02:31:14.564Z,19.30
2023-02-11T02:33:53.870Z,16.80
2023-02-11T02:36:50.220Z,19.70
2023-02-11T02:39:32.213Z,18.50
2023-02-11T02:41:59.734Z,17.50
2023-02-11T02:44:26.485Z,18.80
2023-02-11T02:46:53.164Z,18.10
2023-02-11T02:49:19.725Z,19.00
2023-02-11T02:52:16.341Z,16.70
2023-02-11T02:55:27.464Z,19.30
2023-02-11T02:58:24.385Z,15.90
2023-02-11T03:01:33.166Z,17.00
2023-02-11T03:04:13.752Z,17.30
2023-02-11T03:07:01.801Z,17.60
2023-02-11T03:09:38.617Z,20.00
2023-02-11T03:12:07.840Z,18.60
2023-02-11T03:14:36.863Z,20.80
2023-02-11T03:17:06.199Z,19.50
2023-02-11T03:19:48.482Z,18.00
2023-02-11T03:22:30.357Z,19.00
2023-02-11T03:24:57.037Z,18.80
2023-02-11T03:27:51.713Z,18.00
2023-02-11T03:30:30.480Z,15.70
2023-02-11T03:33:13.834Z,17.50
2023-02-11T03:36:01.269Z,15.90
2023-02-11T03:38:45.164Z,15.50
2023-02-11T03:41:16.162Z,14.80
2023-02-11T03:43:52.044Z,15.00
2023-02-11T03:46:24.854Z,14.40
2023-02-11T03:49:02.684Z,17.20
2023-02-11T03:51:32.584Z,13.90
2023-02-11T03:54:04.223Z,14.00
2023-02-11T03:56:50.004Z,16.00
2023-02-11T03:59:16.954Z,14.40
2023-02-11T04:01:43.553Z,15.00
2023-02-11T04:04:10.530Z,13.00
2023-02-11T04:06:37.448Z,12.80
2023-02-11T04:09:04.845Z,15.50
2023-02-11T04:11:31.501Z,12.80
2023-02-11T04:13:58.410Z,14.10
2023-02-11T04:16:26.899Z,13.10
2023-02-11T04:18:53.596Z,12.90
2023-02-11T04:21:20.255Z,13.70
2023-02-11T04:23:46.909Z,13.80
2023-02-11T04:26:13.799Z,13.70
2023-02-11T04:28:40.607Z,13.70
2023-02-11T04:31:07.187Z,14.90
2023-02-11T04:33:33.827Z,12.90
2023-02-11T04:36:00.381Z,12.40
2023-02-11T04:38:26.980Z,14.10
2023-02-11T04:40:53.550Z,11.90
2023-02-11T04:43:20.146Z,12.10
2023-02-11T04:45:46.771Z,11.80
2023-02-11T04:48:13.473Z,12.70
2023-02-11T04:50:40.112Z,14.30
2023-02-11T04:53:06.673Z,14.30
2023-02-11T04:55:33.291Z,13.30
2023-02-11T04:57:59.934Z,12.30
2023-02-11T05:00:26.612Z,11.30
2023-02-11T05:02:53.238Z,11.90
2023-02-11T05:05:19.899Z,12.40
2023-02-11T05:07:46.758Z,12.10
2023-02-11T05:10:13.353Z,12.50
2023-02-11T05:12:39.901Z,14.30
2023-02-11T05:15:06.926Z,14.00
2023-02-11T05:17:33.578Z,13.10
2023-02-11T05:20:00.183Z,12.00
2023-02-11T05:22:26.894Z,14.50
2023-02-11T05:24:53.655Z,12.80
2023-02-11T05:27:20.282Z,11.30
2023-02-11T05:29:46.977Z,11.50
2023-02-11T05:32:13.604Z,14.90
2023-02-11T05:34:40.293Z,13.20
2023-02-11T05:37:06.939Z,12.80
2023-02-11T05:39:33.647Z,12.50
2023-02-11T05:42:00.253Z,15.90
2023-02-11T05:44:26.920Z,12.80
2023-02-11T05:46:53.494Z,12.90
2023-02-11T05:49:20.150Z,14.00
2023-02-11T05:51:46.852Z,14.50
2023-02-11T05:54:13.696Z,15.80
2023-02-11T05:56:40.954Z,15.20
2023-02-11T05:59:08.411Z,12.90
2023-02-11T06:01:35.550Z,12.60
2023-02-11T06:04:02.208Z,13.50
2023-02-11T06:06:28.902Z,12.60
2023-02-11T06:08:56.467Z,11.80
2023-02-11T06:11:23.271Z,12.50
2023-02-11T06:13:50.021Z,12.50
2023-02-11T06:16:16.619Z,13.20
2023-02-11T06:18:43.294Z,11.40
2023-02-11T06:21:11.835Z,13.40
2023-02-11T06:23:39.184Z,11.80
2023-02-11T06:26:09.630Z,12.70
2023-02-11T06:28:38.700Z,15.00
2023-02-11T06:31:08.145Z,14.20
2023-02-11T06:33:36.172Z,11.50
2023-02-11T06:36:04.072Z,13.20
2023-02-11T06:38:31.156Z,12.40
2023-02-11T06:40:57.818Z,11.20
2023-02-11T06:43:24.403Z,13.30
2023-02-11T06:45:55.817Z,12.40
2023-02-11T06:48:23.643Z,15.40
2023-02-11T06:50:50.354Z,12.20
2023-02-11T06:53:17.046Z,11.70
2023-02-11T06:55:43.657Z,13.80
2023-02-11T06:58:10.445Z,14.10
2023-02-11T07:00:37.595Z,10.50
2023-02-11T07:03:04.313Z,20.80
2023-02-11T07:05:30.994Z,11.00
2023-02-11T07:07:57.621Z,11.80
2023-02-11T07:10:24.180Z,11.80
2023-02-11T07:12:50.936Z,11.70
2023-02-11T07:15:17.799Z,11.90
2023-02-11T07:17:44.425Z,13.10
2023-02-11T07:20:12.567Z,11.10
2023-02-11T07:22:39.093Z,10.50
2023-02-11T07:25:06.107Z,11.10
2023-02-11T07:27:32.726Z,12.40
2023-02-11T07:29:59.419Z,13.10
2023-02-11T07:32:26.118Z,24.40
2023-02-11T07:34:52.758Z,25.20
2023-02-11T07:37:19.765Z,12.30
2023-02-11T07:39:46.328Z,11.00
2023-02-11T07:42:12.989Z,10.20
2023-02-11T07:44:39.631Z,11.10
2023-02-11T07:47:06.291Z,11.40
2023-02-11T07:49:33.113Z,27.00
2023-02-11T07:51:59.757Z,15.30
2023-02-11T07:54:26.417Z,26.70
2023-02-11T07:56:53.071Z,17.00
2023-02-11T07:59:19.842Z,12.60
2023-02-11T08:01:46.502Z,12.60
2023-02-11T08:04:13.210Z,11.30
2023-02-11T08:06:43.291Z,11.70
2023-02-11T08:09:16.591Z,11.30
2023-02-11T08:11:43.845Z,10.90
2023-02-11T08:14:11.670Z,14.80
2023-02-11T08:16:39.384Z,11.60
2023-02-11T08:19:12.452Z,11.70
2023-02-11T08:21:40.058Z,14.60
2023-02-11T08:24:07.201Z,26.00
2023-02-11T08:26:35.371Z,13.10
2023-02-11T08:29:08.432Z,12.30
2023-02-11T08:31:38.628Z,15.30
2023-02-11T08:34:06.266Z,17.50
2023-02-11T08:36:36.719Z,13.90
2023-02-11T08:39:18.670Z,15.30
2023-02-11T08:41:50.424Z,14.00
2023-02-11T08:44:19.147Z,14.50
2023-02-11T08:46:45.893Z,11.60
2023-02-11T08:49:12.514Z,14.00
2023-02-11T08:51:39.133Z,13.80
2023-02-11T08:54:09.529Z,15.10
2023-02-11T08:56:38.458Z,16.90
2023-02-11T08:59:06.181Z,12.80
2023-02-11T09:01:33.046Z,28.40
2023-02-11T09:03:59.711Z,18.10
2023-02-11T09:06:27.330Z,19.00
2023-02-11T09:08:56.876Z,14.00
2023-02-11T09:11:34.169Z,14.80
2023-02-11T09:14:02.489Z,15.40
2023-02-11T09:16:34.089Z,16.10
2023-02-11T09:19:04.138Z,16.70
2023-02-11T09:21:31.824Z,51.20
2023-02-11T09:23:58.453Z,27.00
2023-02-11T09:26:31.740Z,18.70
2023-02-11T09:29:00.051Z,17.00
2023-02-11T09:31:29.585Z,18.50
2023-02-11T09:34:00.513Z,16.70
2023-02-11T09:36:32.041Z,16.60
2023-02-11T09:39:01.968Z,16.70
2023-02-11T09:42:06.493Z,15.50
2023-02-11T09:44:36.767Z,13.10
2023-02-11T09:47:27.702Z,11.70
2023-02-11T09:50:22.884Z,13.20
2023-02-11T09:53:00.983Z,14.20
2023-02-11T09:55:39.699Z,14.60
2023-02-11T09:58:22.970Z,13.40
2023-02-11T10:01:36.081Z,14.30
2023-02-11T10:04:29.740Z,14.50
2023-02-11T10:07:25.965Z,15.70
2023-02-11T10:10:33.596Z,19.20
2023-02-11T10:13:31.125Z,15.60
2023-02-11T10:16:20.642Z,17.00
2023-02-11T10:19:11.325Z,16.80
2023-02-11T10:22:03.648Z,15.90
2023-02-11T10:24:31.620Z,18.80
2023-02-11T10:26:58.238Z,19.80
2023-02-11T10:29:38.867Z,16.70
2023-02-11T10:32:22.011Z,13.00
2023-02-11T10:34:48.679Z,16.60
2023-02-11T10:37:15.286Z,16.20
2023-02-11T10:39:42.179Z,15.80
2023-02-11T10:42:13.979Z,18.90
2023-02-11T10:44:59.840Z,15.20
2023-02-11T10:47:36.752Z,13.00
2023-02-11T10:50:19.623Z,16.00
2023-02-11T10:52:46.262Z,18.40
2023-02-11T10:55:24.716Z,17.80
2023-02-11T10:57:58.324Z,14.00
2023-02-11T11:00:41.142Z,18.50
2023-02-11T11:03:25.266Z,19.00
2023-02-11T11:06:03.185Z,20.90
2023-02-11T11:08:49.771Z,19.80
2023-02-11T11:11:20.306Z,16.60
2023-02-11T11:13:52.954Z,16.80
2023-02-11T11:16:30.511Z,16.20
2023-02-11T11:19:25.255Z,16.80
2023-02-11T11:21:55.672Z,16.80
2023-02-11T11:24:38.905Z,14.50
2023-02-11T11:27:06.082Z,17.10
2023-02-11T11:29:46.468Z,16.60
2023-02-11T11:32:22.691Z,16.10
2023-02-11T11:35:00.767Z,15.90
2023-02-11T11:37:35.935Z,16.90
2023-02-11T11:40:11.112Z,16.30
2023-02-11T11:42:40.144Z,15.10
2023-02-11T11:45:10.236Z,14.90
2023-02-11T11:47:53.903Z,13.90
2023-02-11T11:50:44.453Z,14.10
2023-02-11T11:53:19.135Z,15.90
2023-02-11T11:55:53.099Z,13.00
2023-02-11T11:58:23.137Z,13.20
2023-02-11T12:01:34.111Z,15.90
2023-02-11T12:04:57.792Z,14.30
2023-02-11T12:07:56.155Z,14.70
2023-02-11T12:10:57.793Z,14.00
2023-02-11T12:13:41.262Z,14.10
2023-02-11T12:16:30.063Z,11.90
2023-02-11T12:19:27.873Z,15.70
2023-02-11T12:22:12.498Z,14.10
2023-02-11T12:25:09.557Z,12.60
2023-02-11T12:28:01.572Z,19.30
2023-02-11T12:31:02.307Z,10.20
2023-02-11T12:33:44.882Z,15.60
2023-02-11T12:36:54.469Z,14.70
2023-02-11T12:40:12.704Z,16.70
2023-02-11T12:43:13.743Z,13.50
2023-02-11T12:45:49.534Z,13.00
2023-02-11T12:48:36.821Z,15.40
2023-02-11T12:51:23.871Z,15.50
2023-02-11T12:54:06.784Z,15.30
2023-02-11T12:56:39.703Z,14.40
2023-02-11T12:59:17.445Z,14.00
2023-02-11T13:01:44.991Z,16.00
2023-02-11T13:04:27.137Z,14.80
2023-02-11T13:07:12.603Z,16.30
2023-02-11T13:09:47.382Z,17.10
2023-02-11T13:12:33.494Z,14.20
2023-02-11T13:15:07.637Z,13.60
2023-02-11T13:17:47.507Z,15.80
2023-02-11T13:20:45.636Z,16.30
2023-02-11T13:23:50.275Z,15.10
2023-02-11T13:26:25.918Z,16.20
2023-02-11T13:29:26.623Z,13.40
2023-02-11T13:32:14.963Z,13.40
2023-02-11T13:34:41.455Z,13.70
2023-02-11T13:37:22.859Z,13.10
2023-02-11T13:40:19.060Z,13.00
2023-02-11T13:43:00.849Z,12.90
2023-02-11T13:45:44.863Z,10.10
2023-02-11T13:48:26.901Z,14.90
2023-02-11T13:51:01.120Z,11.40
2023-02-11T13:53:29.161Z,12.30
2023-02-11T13:56:11.514Z,11.10
2023-02-11T13:58:50.442Z,13.50
2023-02-11T14:02:14.435Z,12.60
2023-02-11T14:05:24.791Z,13.40
2023-02-11T14:08:28.646Z,12.10
2023-02-11T14:11:12.396Z,11.90
2023-02-11T14:13:48.235Z,14.30
2023-02-11T14:16:28.306Z,12.80
2023-02-11T14:19:02.496Z,11.00
2023-02-11T14:21:29.427Z,11.70
2023-02-11T14:24:01.858Z,11.20
2023-02-11T14:26:51.486Z,10.90
2023-02-11T14:29:29.903Z,11.00
2023-02-11T14:32:20.498Z,12.30
2023-02-11T14:35:10.472Z,12.80
2023-02-11T14:38:35.861Z,11.40
2023-02-11T14:41:25.417Z,12.50
2023-02-11T14:44:04.097Z,14.30
2023-02-11T14:46:35.169Z,13.20
2023-02-11T14:49:04.742Z,14.40
2023-02-11T14:51:36.830Z,12.40
2023-02-11T14:54:15.140Z,17.00
2023-02-11T14:56:42.739Z,14.20
2023-02-11T14:59:21.964Z,14.90
2023-02-11T15:01:56.365Z,16.30
2023-02-11T15:04:33.551Z,15.40
2023-02-11T15:07:10.706Z,17.30
2023-02-11T15:09:44.596Z,13.60
2023-02-11T15:12:29.466Z,15.40
2023-02-11T15:14:59.825Z,18.10
2023-02-11T15:17:30.702Z,17.90
2023-02-11T15:20:01.471Z,18.00
2023-02-11T15:22:33.056Z,18.10
2023-02-11T15:25:10.624Z,17.40
2023-02-11T15:27:38.669Z,15.50
2023-02-11T15:30:20.281Z,19.20
2023-02-11T15:32:48.366Z,18.20
2023-02-11T15:35:15.090Z,16.50
2023-02-11T15:37:41.992Z,19.30
2023-02-11T15:40:21.655Z,13.60
2023-02-11T15:43:04.272Z,18.80
2023-02-11T15:45:42.975Z,17.00
2023-02-11T15:48:35.480Z,20.50
2023-02-11T15:51:13.248Z,17.90
2023-02-11T15:53:43.346Z,19.30
2023-02-11T15:56:17.213Z,17.20
2023-02-11T15:58:47.731Z,19.70
2023-02-11T16:01:15.458Z,24.00
2023-02-11T16:03:43.654Z,15.60
2023-02-11T16:06:18.773Z,16.20
2023-02-11T16:09:08.506Z,17.00
2023-02-11T16:11:58.883Z,16.90
2023-02-11T16:14:34.731Z,17.30
2023-02-11T16:17:24.312Z,18.10
2023-02-11T16:19:53.681Z,17.80
2023-02-11T16:22:27.535Z,18.30
2023-02-11T16:24:57.952Z,20.30
2023-02-11T16:27:41.947Z,20.50
2023-02-11T16:30:28.989Z,21.50
2023-02-11T16:32:55.651Z,23.10
2023-02-11T16:35:22.332Z,19.40
2023-02-11T16:37:49.030Z,19.80
2023-02-11T16:40:15.885Z,21.20
2023-02-11T16:42:42.655Z,20.10
2023-02-11T16:45:09.921Z,20.00
2023-02-11T16:47:40.963Z,22.20
2023-02-11T16:50:21.200Z,23.40
2023-02-11T16:52:48.439Z,20.20
2023-02-11T16:55:15.363Z,20.80
2023-02-11T16:57:42.290Z,19.70
2023-02-11T17:00:10.337Z,21.10
2023-02-11T17:02:38.936Z,19.60
2023-02-11T17:05:11.794Z,18.30
2023-02-11T17:07:38.332Z,19.30
2023-02-11T17:10:18.173Z,21.20
2023-02-11T17:12:45.208Z,18.60
2023-02-11T17:15:11.844Z,20.60
2023-02-11T17:17:38.430Z,21.10
2023-02-11T17:20:06.771Z,18.40
2023-02-11T17:22:33.589Z,22.80
2023-02-11T17:25:00.291Z,24.50
2023-02-11T17:27:26.920Z,23.40
2023-02-11T17:29:53.569Z,24.70
2023-02-11T17:32:20.256Z,23.40
2023-02-11T17:34:46.915Z,22.00
2023-02-11T17:37:13.520Z,22.70
2023-02-11T17:39:40.782Z,22.10
2023-02-11T17:42:08.790Z,26.50
2023-02-11T17:44:35.742Z,21.10
2023-02-11T17:47:02.375Z,24.80
2023-02-11T17:49:29.047Z,22.80
2023-02-11T17:51:55.827Z,24.20
2023-02-11T17:54:22.586Z,23.70
2023-02-11T17:56:50.889Z,22.30
2023-02-11T17:59:17.863Z,23.50
2023-02-11T18:01:44.499Z,23.30
2023-02-11T18:04:16.621Z,22.60
2023-02-11T18:06:44.427Z,21.00
2023-02-11T18:09:12.046Z,22.20
2023-02-11T18:11:41.247Z,21.00
2023-02-11T18:14:09.593Z,23.80
2023-02-11T18:16:39.046Z,20.00
2023-02-11T18:19:07.509Z,19.40
2023-02-11T18:21:34.456Z,19.40
2023-02-11T18:24:06.049Z,23.20
2023-02-11T18:26:33.408Z,23.50
2023-02-11T18:29:00.498Z,21.10
2023-02-11T18:31:28.102Z,20.30
2023-02-11T18:33:54.890Z,21.90
2023-02-11T18:36:22.819Z,23.50
2023-02-11T18:38:49.462Z,21.90
2023-02-11T18:41:16.192Z,22.20
2023-02-11T18:43:43.138Z,20.90
2023-02-11T18:46:13.240Z,21.10
2023-02-11T18:48:41.333Z,23.40
2023-02-11T18:51:15.086Z,26.30
2023-02-11T18:53:43.362Z,27.70
2023-02-11T18:56:18.204Z,26.00
2023-02-11T18:58:45.035Z,25.00
2023-02-11T19:01:26.042Z,25.00
2023-02-11T19:03:54.568Z,21.80
2023-02-11T19:06:28.958Z,24.80
2023-02-11T19:09:00.255Z,23.70
2023-02-11T19:11:47.604Z,21.50
2023-02-11T19:14:27.223Z,25.60
2023-02-11T19:16:57.234Z,25.90
2023-02-11T19:19:28.506Z,24.10
2023-02-11T19:21:57.452Z,23.60
2023-02-11T19:24:25.567Z,25.10
2023-02-11T19:26:56.911Z,23.70
2023-02-11T19:29:24.298Z,27.40
2023-02-11T19:31:51.118Z,24.80
2023-02-11T19:34:22.005Z,25.60
2023-02-11T19:36:50.212Z,24.40
2023-02-11T19:39:18.585Z,25.50
2023-02-11T19:41:45.359Z,21.40
2023-02-11T19:44:14.121Z,26.80
2023-02-11T19:46:40.922Z,26.20
2023-02-11T19:49:09.942Z,26.00
2023-02-11T19:51:39.299Z,26.00
2023-02-11T19:54:08.213Z,28.00
2023-02-11T19:56:35.390Z,29.90
2023-02-11T19:59:04.875Z,27.10
2023-02-11T20:01:31.805Z,26.80
2023-02-11T20:03:58.597Z,25.70
2023-02-11T20:06:30.039Z,29.90
2023-02-11T20:09:01.491Z,24.50
2023-02-11T20:11:30.899Z,27.70
2023-02-11T20:13:58.295Z,29.30
2023-02-11T20:16:46.203Z,29.20
2023-02-11T20:19:19.003Z,27.00
2023-02-11T20:21:48.876Z,24.90
2023-02-11T20:24:17.750Z,31.80
2023-02-11T20:26:50.314Z,25.10
2023-02-11T20:29:18.531Z,27.60
2023-02-11T20:31:45.700Z,24.90
2023-02-11T20:34:12.646Z,26.40
2023-02-11T20:36:40.576Z,23.70
2023-02-11T20:39:08.620Z,26.40
2023-02-11T20:41:40.022Z,24.70
2023-02-11T20:44:10.604Z,23.90
2023-02-11T20:46:41.108Z,24.00
2023-02-11T20:49:11.851Z,26.20
2023-02-11T20:51:39.753Z,25.30
2023-02-11T20:54:06.932Z,25.60
2023-02-11T20:56:37.567Z,25.40
2023-02-11T20:59:05.558Z,27.50
2023-02-11T21:01:37.895Z,24.90
2023-02-11T21:04:15.780Z,22.50
2023-02-11T21:06:47.615Z,24.30
2023-02-11T21:09:21.281Z,26.10
2023-02-11T21:11:52.643Z,25.70
2023-02-11T21:14:22.850Z,25.00
2023-02-11T21:16:51.167Z,23.20
2023-02-11T21:19:18.175Z,24.90
2023-02-11T21:21:45.098Z,25.30
2023-02-11T21:24:12.301Z,21.80
2023-02-11T21:26:39.262Z,21.40
2023-02-11T21:29:08.518Z,21.30
2023-02-11T21:31:36.759Z,21.10
2023-02-11T21:34:04.516Z,24.90
2023-02-11T21:36:31.316Z,23.40
2023-02-11T21:38:58.678Z,24.50
2023-02-11T21:41:27.412Z,26.50
2023-02-11T21:43:54.445Z,23.10
2023-02-11T21:46:22.102Z,26.70
2023-02-11T21:48:49.362Z,26.00
2023-02-11T21:51:23.098Z,27.50
2023-02-11T21:53:57.976Z,25.20
2023-02-11T21:56:28.662Z,23.90
2023-02-11T21:58:58.238Z,25.40
2023-02-11T22:01:32.807Z,24.50
2023-02-11T22:03:59.631Z,22.30
2023-02-11T22:06:31.056Z,21.60
2023-02-11T22:08:59.126Z,23.60
2023-02-11T22:11:25.666Z,20.00
2023-02-11T22:13:56.400Z,18.70
2023-02-11T22:16:24.207Z,18.00
2023-02-11T22:18:51.583Z,23.60
2023-02-11T22:21:21.872Z,24.30
2023-02-11T22:23:49.501Z,22.50
2023-02-11T22:26:23.193Z,22.20
2023-02-11T22:28:51.594Z,22.00
2023-02-11T22:31:31.432Z,24.40
2023-02-11T22:33:58.990Z,22.70
2023-02-11T22:36:30.158Z,22.50
2023-02-11T22:39:03.785Z,21.90
2023-02-11T22:41:30.537Z,22.20
2023-02-11T22:43:57.680Z,22.00
2023-02-11T22:46:24.913Z,21.00
2023-02-11T22:48:52.132Z,23.80
2023-02-11T22:51:23.719Z,22.50
2023-02-11T22:53:57.158Z,16.40
2023-02-11T22:56:24.515Z,23.50
2023-02-11T22:58:51.927Z,21.90
2023-02-11T23:01:19.246Z,21.50
2023-02-11T23:03:46.235Z,24.70
2023-02-11T23:06:13.109Z,17.20
2023-02-11T23:08:42.837Z,21.80
2023-02-11T23:11:17.561Z,22.90
2023-02-11T23:13:46.558Z,24.30
2023-02-11T23:16:34.567Z,21.60
2023-02-11T23:19:06.610Z,22.00
2023-02-11T23:21:38.212Z,20.40
2023-02-11T23:24:12.680Z,21.10
2023-02-11T23:26:41.484Z,22.80
2023-02-11T23:29:10.258Z,20.90
2023-02-11T23:31:40.531Z,21.40
2023-02-11T23:34:08.760Z,21.90
2023-02-11T23:36:36.143Z,21.20
2023-02-11T23:39:03.668Z,20.90
2023-02-11T23:41:30.414Z,18.80
2023-02-11T23:43:58.109Z,24.10
2023-02-11T23:46:26.996Z,17.00
2023-02-11T23:48:53.858Z,20.70
2023-02-11T23:51:22.001Z,18.20
2023-02-11T23:53:49.862Z,20.30
2023-02-11T23:56:26.431Z,20.60
2023-02-11T23:58:57.225Z,19.60
